Great Barford, United Kingdom
Current Conditions -  °F | °C
As of 4:50 PM on Friday 21 Nov 2014 (Local Time) from EGTC Reporting Station
Haze Haze  
Wind Chill: 41°   Ceiling: 4000
Heat Index: 46°   Visibility: 1.8mi
Dew Point: 45°   Wind: 13mph
Humidity: 93%   Direction: 120°ESE
Pressure: 29.94"   Gusts: NA
Location:  52.16°N, 0.35°W
Report Text: EGTC 211650Z 12011KT 3000 HZ FEW007 BKN040 08/07 Q1014
Loading
Personal Weather Stations






























Interactive Weather Map New forecast layout! Learn more

10-Day Weather Forecast

Advertisements
Track Severe Weather on mobile